createdAt,value
2023-12-13T00:00:59.818Z,52.65
2023-12-13T00:03:27.058Z,52.50
2023-12-13T00:05:53.927Z,52.53
2023-12-13T00:08:22.012Z,52.50
2023-12-13T00:10:49.007Z,51.96
2023-12-13T00:13:16.372Z,52.28
2023-12-13T00:15:43.110Z,52.62
2023-12-13T00:18:10.856Z,52.11
2023-12-13T00:20:39.092Z,52.45
2023-12-13T00:23:08.818Z,52.05
2023-12-13T00:25:35.542Z,52.55
2023-12-13T00:28:02.395Z,52.35
2023-12-13T00:30:29.212Z,52.13
2023-12-13T00:32:56.142Z,52.86
2023-12-13T00:35:22.873Z,52.55
2023-12-13T00:37:49.702Z,52.32
2023-12-13T00:40:22.639Z,52.68
2023-12-13T00:42:50.304Z,52.76
2023-12-13T00:45:17.153Z,52.53
2023-12-13T00:47:44.504Z,52.31
2023-12-13T00:50:14.193Z,52.76
2023-12-13T00:52:40.969Z,53.15
2023-12-13T00:55:09.441Z,53.65
2023-12-13T00:57:36.721Z,53.67
2023-12-13T01:00:03.962Z,53.14
2023-12-13T01:02:30.766Z,52.71
2023-12-13T01:04:57.861Z,53.19
2023-12-13T01:07:24.786Z,53.27
2023-12-13T01:09:54.546Z,53.68
2023-12-13T01:12:21.429Z,53.52
2023-12-13T01:14:48.154Z,53.21
2023-12-13T01:17:16.342Z,52.51
2023-12-13T01:19:44.058Z,52.63
2023-12-13T01:22:11.002Z,52.66
2023-12-13T01:24:38.494Z,52.46
2023-12-13T01:27:06.773Z,53.20
2023-12-13T01:29:33.494Z,53.14
2023-12-13T01:32:00.494Z,53.33
2023-12-13T01:34:27.532Z,52.45
2023-12-13T01:36:54.239Z,52.85
2023-12-13T01:39:21.118Z,52.56
2023-12-13T01:41:47.833Z,52.81
2023-12-13T01:44:14.602Z,52.48
2023-12-13T01:46:44.079Z,52.98
2023-12-13T01:49:14.925Z,52.68
2023-12-13T01:51:46.204Z,52.92
2023-12-13T01:54:17.653Z,52.91
2023-12-13T01:56:48.726Z,52.88
2023-12-13T01:59:18.135Z,52.24
2023-12-13T02:01:47.946Z,52.71
2023-12-13T02:04:17.861Z,52.56
2023-12-13T02:06:44.709Z,52.40
2023-12-13T02:09:12.199Z,52.36
2023-12-13T02:11:39.110Z,52.60
2023-12-13T02:14:05.954Z,52.55
2023-12-13T02:16:34.105Z,52.95
2023-12-13T02:19:03.329Z,52.21
2023-12-13T02:21:31.435Z,53.00
2023-12-13T02:24:04.704Z,52.49
2023-12-13T02:26:32.099Z,52.73
2023-12-13T02:29:00.342Z,52.89
2023-12-13T02:31:31.572Z,53.06
2023-12-13T02:33:58.570Z,52.65
2023-12-13T02:36:27.794Z,52.78
2023-12-13T02:38:54.568Z,53.02
2023-12-13T02:41:21.402Z,52.39
2023-12-13T02:43:48.210Z,52.60
2023-12-13T02:46:16.200Z,52.44
2023-12-13T02:48:43.032Z,52.68
2023-12-13T02:51:10.198Z,52.98
2023-12-13T02:53:39.422Z,52.11
2023-12-13T02:56:06.538Z,52.81
2023-12-13T02:58:33.414Z,52.53
2023-12-13T03:01:00.219Z,53.09
2023-12-13T03:03:29.869Z,52.43
2023-12-13T03:05:56.618Z,52.71
2023-12-13T03:08:23.433Z,53.02
2023-12-13T03:10:50.249Z,52.34
2023-12-13T03:13:19.897Z,52.39
2023-12-13T03:15:46.874Z,52.56
2023-12-13T03:18:13.854Z,52.88
2023-12-13T03:20:40.885Z,52.67
2023-12-13T03:23:09.614Z,52.37
2023-12-13T03:25:36.412Z,52.94
2023-12-13T03:28:03.831Z,52.98
2023-12-13T03:30:32.023Z,52.53
2023-12-13T03:32:58.925Z,53.02
2023-12-13T03:35:27.079Z,52.42
2023-12-13T03:37:53.851Z,52.71
2023-12-13T03:40:20.807Z,52.48
2023-12-13T03:42:50.559Z,53.06
2023-12-13T03:45:22.145Z,53.01
2023-12-13T03:47:49.274Z,52.97
2023-12-13T03:50:19.155Z,52.36
2023-12-13T03:52:48.594Z,52.94
2023-12-13T03:55:15.558Z,52.76
2023-12-13T03:57:46.763Z,52.32
2023-12-13T04:00:13.734Z,52.28
2023-12-13T04:02:40.553Z,52.39
2023-12-13T04:05:10.346Z,53.08
2023-12-13T04:07:37.771Z,52.30
2023-12-13T04:10:08.615Z,52.65
2023-12-13T04:12:35.444Z,52.23
2023-12-13T04:15:05.160Z,52.37
2023-12-13T04:17:32.328Z,52.52
2023-12-13T04:20:00.222Z,52.91
2023-12-13T04:22:27.333Z,52.96
2023-12-13T04:24:54.323Z,52.79
2023-12-13T04:27:23.173Z,52.82
2023-12-13T04:29:50.105Z,52.87
2023-12-13T04:32:16.905Z,52.82
2023-12-13T04:34:43.853Z,52.75
2023-12-13T04:37:10.861Z,52.40
2023-12-13T04:39:40.568Z,52.40
2023-12-13T04:42:07.873Z,52.59
2023-12-13T04:44:34.643Z,52.67
2023-12-13T04:47:04.382Z,52.32
2023-12-13T04:49:34.890Z,52.70
2023-12-13T04:52:01.689Z,52.68
2023-12-13T04:54:28.460Z,52.95
2023-12-13T04:56:55.192Z,52.41
2023-12-13T04:59:22.252Z,52.54
2023-12-13T05:01:49.093Z,52.97
2023-12-13T05:04:16.044Z,52.92
2023-12-13T05:06:46.011Z,52.65
2023-12-13T05:09:19.633Z,52.44
2023-12-13T05:11:46.649Z,52.33
2023-12-13T05:14:13.466Z,52.69
2023-12-13T05:16:40.275Z,52.88
2023-12-13T05:19:07.023Z,52.59
2023-12-13T05:21:33.880Z,52.74
2023-12-13T05:24:00.644Z,52.26
2023-12-13T05:26:28.694Z,52.75
2023-12-13T05:28:55.530Z,52.67
2023-12-13T05:31:24.531Z,52.40
2023-12-13T05:33:54.147Z,52.38
2023-12-13T05:36:21.567Z,52.58
2023-12-13T05:38:48.386Z,52.68
2023-12-13T05:41:19.439Z,52.39
2023-12-13T05:43:46.164Z,52.48
2023-12-13T05:46:15.837Z,52.96
2023-12-13T05:48:42.982Z,52.57
2023-12-13T05:51:09.860Z,53.00
2023-12-13T05:53:38.866Z,52.14
2023-12-13T05:56:06.277Z,52.64
2023-12-13T05:58:35.705Z,52.82
2023-12-13T06:01:02.495Z,52.66
2023-12-13T06:03:29.641Z,52.43
2023-12-13T06:05:57.282Z,52.51
2023-12-13T06:08:24.288Z,52.70
2023-12-13T06:10:51.073Z,53.09
2023-12-13T06:13:19.147Z,52.82
2023-12-13T06:15:46.987Z,52.22
2023-12-13T06:18:14.560Z,52.51
2023-12-13T06:20:41.396Z,52.82
2023-12-13T06:23:16.873Z,52.28
2023-12-13T06:25:46.932Z,52.42
2023-12-13T06:28:13.697Z,52.19
2023-12-13T06:30:40.574Z,52.68
2023-12-13T06:33:09.196Z,52.15
2023-12-13T06:35:37.581Z,52.64
2023-12-13T06:38:04.534Z,52.18
2023-12-13T06:40:31.495Z,52.15
2023-12-13T06:43:01.194Z,52.11
2023-12-13T06:45:28.002Z,52.60
2023-12-13T06:47:54.823Z,52.30
2023-12-13T06:50:22.900Z,52.77
2023-12-13T06:52:50.522Z,52.66
2023-12-13T06:55:17.472Z,52.87
2023-12-13T06:57:44.244Z,52.47
2023-12-13T07:00:11.517Z,52.44
2023-12-13T07:02:41.447Z,52.72
2023-12-13T07:05:11.909Z,52.93
2023-12-13T07:07:39.057Z,52.27
2023-12-13T07:10:06.505Z,52.40
2023-12-13T07:12:33.837Z,52.37
2023-12-13T07:15:00.716Z,52.12
2023-12-13T07:17:27.615Z,52.75
2023-12-13T07:19:54.460Z,52.59
2023-12-13T07:22:21.380Z,52.21
2023-12-13T07:24:48.534Z,52.52
2023-12-13T07:27:15.512Z,52.20
2023-12-13T07:29:52.612Z,52.23
2023-12-13T07:32:19.402Z,52.44
2023-12-13T07:34:46.282Z,52.34
2023-12-13T07:37:16.689Z,52.09
2023-12-13T07:39:43.938Z,52.19
2023-12-13T07:42:10.815Z,52.10
2023-12-13T07:44:37.702Z,52.41
2023-12-13T07:47:04.843Z,51.94
2023-12-13T07:49:32.218Z,52.36
2023-12-13T07:51:59.585Z,52.55
2023-12-13T07:54:26.445Z,52.07
2023-12-13T07:56:54.780Z,52.05
2023-12-13T07:59:22.382Z,51.99
2023-12-13T08:01:49.820Z,52.62
2023-12-13T08:04:17.218Z,51.89
2023-12-13T08:06:44.879Z,52.00
2023-12-13T08:09:12.102Z,52.70
2023-12-13T08:11:42.008Z,52.01
2023-12-13T08:14:12.058Z,51.99
2023-12-13T08:16:39.284Z,51.69
2023-12-13T08:19:06.262Z,52.22
2023-12-13T08:21:33.228Z,52.71
2023-12-13T08:24:00.363Z,52.69
2023-12-13T08:26:27.305Z,52.25
2023-12-13T08:29:04.849Z,52.37
2023-12-13T08:31:37.226Z,51.76
2023-12-13T08:34:04.497Z,52.06
2023-12-13T08:36:31.399Z,51.77
2023-12-13T08:38:58.452Z,52.12
2023-12-13T08:41:25.857Z,52.02
2023-12-13T08:43:54.147Z,52.50
2023-12-13T08:46:20.931Z,51.68
2023-12-13T08:48:48.159Z,52.44
2023-12-13T08:51:15.001Z,52.26
2023-12-13T08:53:42.122Z,51.81
2023-12-13T08:56:11.154Z,51.89
2023-12-13T08:58:38.196Z,51.88
2023-12-13T09:01:05.213Z,51.74
2023-12-13T09:03:33.923Z,51.82
2023-12-13T09:06:01.252Z,51.40
2023-12-13T09:08:28.083Z,51.77
2023-12-13T09:10:54.850Z,51.41
2023-12-13T09:13:21.665Z,52.26
2023-12-13T09:15:48.436Z,51.82
2023-12-13T09:18:15.442Z,52.09
2023-12-13T09:20:42.330Z,51.65
2023-12-13T09:23:11.731Z,51.37
2023-12-13T09:25:38.486Z,51.67
2023-12-13T09:28:05.303Z,51.76
2023-12-13T09:30:32.137Z,51.55
2023-12-13T09:32:59.017Z,51.69
2023-12-13T09:35:26.246Z,52.30
2023-12-13T09:37:53.468Z,51.23
2023-12-13T09:40:20.880Z,51.47
2023-12-13T09:42:49.805Z,51.18
2023-12-13T09:45:22.881Z,51.21
2023-12-13T09:47:52.630Z,51.03
2023-12-13T09:50:22.373Z,50.38
2023-12-13T09:52:50.574Z,50.33
2023-12-13T09:55:17.701Z,50.67
2023-12-13T09:57:44.668Z,50.18
2023-12-13T10:00:15.120Z,50.74
2023-12-13T10:02:42.040Z,50.53
2023-12-13T10:05:15.436Z,50.12
2023-12-13T10:07:42.393Z,50.44
2023-12-13T10:10:10.080Z,50.16
2023-12-13T10:12:38.858Z,51.06
2023-12-13T10:15:13.150Z,50.40
2023-12-13T10:17:42.366Z,51.04
2023-12-13T10:20:10.812Z,50.52
2023-12-13T10:22:40.908Z,50.71
2023-12-13T10:25:08.371Z,50.46
2023-12-13T10:27:35.417Z,50.85
2023-12-13T10:30:03.441Z,50.99
2023-12-13T10:32:30.417Z,50.86
2023-12-13T10:34:57.886Z,50.81
2023-12-13T10:37:28.940Z,51.52
2023-12-13T10:39:58.891Z,51.45
2023-12-13T10:42:27.290Z,51.32
2023-12-13T10:44:54.982Z,51.37
2023-12-13T10:47:28.083Z,51.24
2023-12-13T10:49:57.397Z,51.58
2023-12-13T10:52:27.808Z,51.73
2023-12-13T10:54:54.930Z,51.62
2023-12-13T10:57:22.469Z,51.66
2023-12-13T10:59:50.199Z,51.74
2023-12-13T11:02:20.518Z,51.91
2023-12-13T11:04:49.038Z,51.89
2023-12-13T11:07:22.025Z,51.46
2023-12-13T11:09:51.488Z,51.88
2023-12-13T11:12:21.764Z,52.03
2023-12-13T11:14:53.469Z,52.88
2023-12-13T11:17:23.446Z,52.55
2023-12-13T11:19:57.785Z,52.25
2023-12-13T11:22:25.510Z,52.56
2023-12-13T11:25:07.885Z,52.57
2023-12-13T11:27:35.267Z,53.19
2023-12-13T11:30:17.118Z,53.36
2023-12-13T11:32:47.784Z,53.34
2023-12-13T11:35:21.378Z,53.51
2023-12-13T11:37:55.417Z,52.78
2023-12-13T11:40:23.022Z,52.98
2023-12-13T11:42:51.856Z,52.97
2023-12-13T11:45:21.100Z,53.00
2023-12-13T11:47:49.267Z,53.23
2023-12-13T11:50:18.084Z,52.66
2023-12-13T11:52:45.741Z,52.72
2023-12-13T11:55:16.136Z,52.50
2023-12-13T11:57:45.946Z,52.41
2023-12-13T12:00:13.003Z,52.81
2023-12-13T12:02:40.349Z,52.84
2023-12-13T12:05:09.339Z,52.29
2023-12-13T12:07:36.550Z,52.98
2023-12-13T12:10:06.522Z,52.47
2023-12-13T12:12:36.515Z,52.47
2023-12-13T12:15:08.321Z,52.74
2023-12-13T12:17:35.559Z,52.61
2023-12-13T12:20:04.538Z,52.98
2023-12-13T12:22:35.431Z,52.41
2023-12-13T12:25:02.965Z,52.57
2023-12-13T12:27:30.886Z,53.58
2023-12-13T12:29:58.358Z,52.90
2023-12-13T12:32:26.233Z,52.62
2023-12-13T12:34:53.907Z,52.96
2023-12-13T12:37:22.031Z,52.71
2023-12-13T12:39:49.798Z,52.71
2023-12-13T12:42:17.805Z,52.84
2023-12-13T12:44:46.398Z,53.44
2023-12-13T12:47:13.981Z,52.76
2023-12-13T12:49:41.739Z,53.02
2023-12-13T12:52:09.994Z,53.61
2023-12-13T12:54:37.336Z,53.22
2023-12-13T12:57:05.003Z,52.65
2023-12-13T12:59:32.964Z,52.94
2023-12-13T13:02:00.427Z,53.04
2023-12-13T13:04:28.782Z,52.87
2023-12-13T13:06:57.700Z,53.28
2023-12-13T13:09:25.255Z,53.34
2023-12-13T13:11:52.803Z,53.27
2023-12-13T13:14:26.413Z,53.01
2023-12-13T13:16:53.698Z,53.20
2023-12-13T13:19:23.543Z,52.82
2023-12-13T13:21:52.680Z,52.72
2023-12-13T13:24:21.666Z,53.60
2023-12-13T13:26:49.332Z,52.81
2023-12-13T13:29:18.047Z,53.12
2023-12-13T13:31:45.908Z,52.74
2023-12-13T13:34:13.436Z,52.55
2023-12-13T13:36:40.903Z,52.79
2023-12-13T13:39:11.433Z,52.49
2023-12-13T13:41:39.694Z,52.59
2023-12-13T13:44:07.501Z,52.79
2023-12-13T13:46:34.871Z,53.29
2023-12-13T13:49:03.381Z,52.85
2023-12-13T13:51:31.586Z,52.52
2023-12-13T13:53:59.332Z,52.86
2023-12-13T13:56:30.968Z,52.99
2023-12-13T13:59:04.290Z,53.10
2023-12-13T14:01:32.756Z,52.62
2023-12-13T14:04:02.738Z,52.60
2023-12-13T14:06:30.544Z,52.93
2023-12-13T14:08:57.420Z,52.44
2023-12-13T14:11:25.587Z,52.84
2023-12-13T14:13:52.393Z,53.16
2023-12-13T14:16:19.381Z,52.86
2023-12-13T14:18:46.345Z,52.89
2023-12-13T14:21:13.457Z,52.45
2023-12-13T14:23:40.283Z,53.09
2023-12-13T14:26:07.286Z,52.81
2023-12-13T14:28:34.127Z,52.88
2023-12-13T14:31:04.975Z,52.69
2023-12-13T14:33:32.687Z,52.82
2023-12-13T14:35:59.730Z,52.88
2023-12-13T14:38:27.819Z,53.16
2023-12-13T14:40:55.826Z,52.56
2023-12-13T14:43:23.661Z,52.95
2023-12-13T14:45:52.428Z,52.96
2023-12-13T14:48:20.169Z,52.79
2023-12-13T14:50:49.931Z,52.52
2023-12-13T14:53:19.004Z,52.93
2023-12-13T14:55:47.729Z,52.34
2023-12-13T14:58:15.158Z,52.87
2023-12-13T15:00:43.132Z,53.14
2023-12-13T15:03:11.118Z,52.91
2023-12-13T15:05:38.454Z,53.15
2023-12-13T15:08:08.251Z,52.57
2023-12-13T15:10:35.797Z,52.51
2023-12-13T15:13:06.832Z,52.84
2023-12-13T15:15:36.050Z,52.41
2023-12-13T15:18:04.026Z,53.06
2023-12-13T15:20:35.063Z,53.16
2023-12-13T15:23:03.436Z,53.24
2023-12-13T15:25:31.089Z,52.72
2023-12-13T15:27:58.573Z,53.00
2023-12-13T15:30:28.788Z,52.67
2023-12-13T15:32:56.931Z,53.04
2023-12-13T15:35:24.177Z,52.88
2023-12-13T15:37:52.404Z,53.42
2023-12-13T15:40:19.816Z,53.11
2023-12-13T15:42:48.083Z,52.64
2023-12-13T15:45:15.597Z,52.59
2023-12-13T15:47:42.952Z,53.30
2023-12-13T15:50:10.522Z,53.29
2023-12-13T15:52:42.572Z,52.84
2023-12-13T15:55:10.049Z,53.02
2023-12-13T15:57:37.854Z,52.56
2023-12-13T16:00:05.759Z,52.54
2023-12-13T16:02:32.956Z,52.79
2023-12-13T16:05:00.255Z,52.56
2023-12-13T16:07:27.705Z,53.11
2023-12-13T16:09:55.068Z,53.30
2023-12-13T16:12:22.896Z,52.79
2023-12-13T16:14:50.246Z,53.11
2023-12-13T16:17:21.181Z,52.74
2023-12-13T16:19:48.346Z,53.37
2023-12-13T16:22:15.886Z,52.45
2023-12-13T16:24:45.360Z,52.92
2023-12-13T16:27:18.182Z,53.39
2023-12-13T16:29:45.996Z,53.23
2023-12-13T16:32:13.964Z,53.18
2023-12-13T16:34:41.788Z,52.59
2023-12-13T16:37:09.881Z,52.90
2023-12-13T16:39:37.731Z,52.66
2023-12-13T16:42:05.414Z,52.92
2023-12-13T16:44:33.451Z,53.02
2023-12-13T16:47:00.955Z,53.26
2023-12-13T16:49:28.977Z,53.04
2023-12-13T16:51:57.653Z,53.72
2023-12-13T16:54:24.929Z,53.40
2023-12-13T16:56:52.785Z,52.99
2023-12-13T16:59:20.348Z,53.35
2023-12-13T17:01:48.460Z,53.30
2023-12-13T17:04:15.617Z,53.23
2023-12-13T17:06:43.535Z,52.82
2023-12-13T17:09:14.205Z,52.91
2023-12-13T17:11:42.635Z,53.74
2023-12-13T17:14:10.143Z,53.09
2023-12-13T17:16:38.087Z,53.05
2023-12-13T17:19:10.027Z,53.44
2023-12-13T17:21:40.408Z,52.82
2023-12-13T17:24:09.344Z,53.38
2023-12-13T17:26:38.545Z,53.27
2023-12-13T17:29:06.205Z,53.29
2023-12-13T17:31:33.490Z,52.88
2023-12-13T17:34:00.844Z,53.23
2023-12-13T17:36:28.659Z,53.60
2023-12-13T17:38:55.951Z,53.31
2023-12-13T17:41:23.496Z,53.57
2023-12-13T17:43:51.765Z,52.99
2023-12-13T17:46:19.014Z,52.83
2023-12-13T17:48:46.597Z,53.58
2023-12-13T17:51:14.657Z,53.12
2023-12-13T17:53:42.611Z,53.59
2023-12-13T17:56:09.688Z,53.21
2023-12-13T17:58:36.660Z,53.41
2023-12-13T18:01:03.574Z,53.52
2023-12-13T18:03:32.885Z,53.63
2023-12-13T18:06:00.073Z,53.29
2023-12-13T18:08:27.961Z,53.42
2023-12-13T18:10:55.137Z,53.20
2023-12-13T18:13:23.322Z,53.27
2023-12-13T18:15:51.079Z,53.15
2023-12-13T18:18:21.511Z,53.15
2023-12-13T18:20:48.945Z,52.89
2023-12-13T18:23:16.327Z,52.92
2023-12-13T18:25:44.386Z,52.93
2023-12-13T18:28:12.362Z,53.12
2023-12-13T18:30:39.661Z,53.11
2023-12-13T18:33:07.278Z,53.22
2023-12-13T18:35:34.573Z,53.40
2023-12-13T18:38:05.500Z,53.29
2023-12-13T18:40:33.322Z,53.54
2023-12-13T18:43:00.763Z,52.78
2023-12-13T18:45:28.733Z,53.25
2023-12-13T18:47:56.228Z,53.21
2023-12-13T18:50:23.778Z,53.33
2023-12-13T18:52:51.181Z,52.54
2023-12-13T18:55:21.002Z,52.94
2023-12-13T18:57:50.026Z,53.38
2023-12-13T19:00:18.325Z,53.45
2023-12-13T19:02:46.058Z,52.87
2023-12-13T19:05:13.730Z,53.04
2023-12-13T19:07:41.404Z,53.30
2023-12-13T19:10:11.419Z,53.38
2023-12-13T19:12:39.593Z,52.94
2023-12-13T19:15:08.355Z,52.75
2023-12-13T19:17:36.687Z,53.54
2023-12-13T19:20:07.990Z,53.15
2023-12-13T19:22:35.234Z,53.03
2023-12-13T19:25:02.095Z,52.98
2023-12-13T19:27:28.892Z,53.70
2023-12-13T19:29:55.575Z,52.95
2023-12-13T19:32:22.617Z,53.05
2023-12-13T19:34:50.149Z,53.20
2023-12-13T19:37:17.093Z,53.47
2023-12-13T19:39:43.800Z,52.81
2023-12-13T19:42:11.736Z,53.20
2023-12-13T19:44:38.692Z,53.16
2023-12-13T19:47:07.162Z,52.83
2023-12-13T19:49:34.044Z,53.12
2023-12-13T19:52:00.796Z,53.14
2023-12-13T19:54:28.347Z,53.36
2023-12-13T19:56:55.115Z,53.17
2023-12-13T19:59:21.909Z,52.90
2023-12-13T20:01:48.688Z,53.23
2023-12-13T20:04:15.839Z,53.17
2023-12-13T20:06:42.822Z,53.10
2023-12-13T20:09:09.607Z,53.55
2023-12-13T20:11:36.386Z,53.41
2023-12-13T20:14:05.538Z,53.43
2023-12-13T20:16:32.834Z,53.37
2023-12-13T20:18:59.633Z,53.51
2023-12-13T20:21:27.802Z,52.97
2023-12-13T20:23:54.637Z,53.45
2023-12-13T20:26:21.496Z,53.34
2023-12-13T20:28:48.216Z,52.83
2023-12-13T20:31:15.003Z,53.56
2023-12-13T20:33:41.908Z,52.79
2023-12-13T20:36:11.611Z,53.49
2023-12-13T20:38:39.155Z,52.85
2023-12-13T20:41:08.392Z,53.20
2023-12-13T20:43:35.428Z,53.36
2023-12-13T20:46:02.974Z,53.20
2023-12-13T20:48:29.747Z,53.22
2023-12-13T20:50:56.611Z,53.52
2023-12-13T20:53:25.188Z,52.98
2023-12-13T20:55:52.732Z,53.01
2023-12-13T20:58:20.433Z,53.22
2023-12-13T21:00:48.636Z,53.61
2023-12-13T21:03:16.214Z,53.33
2023-12-13T21:05:44.074Z,52.90
2023-12-13T21:08:11.326Z,53.03
2023-12-13T21:10:39.308Z,53.06
2023-12-13T21:13:06.508Z,53.30
2023-12-13T21:15:34.150Z,53.06
2023-12-13T21:18:01.533Z,53.75
2023-12-13T21:20:29.881Z,53.32
2023-12-13T21:23:01.974Z,53.66
2023-12-13T21:25:33.132Z,52.88
2023-12-13T21:28:02.800Z,53.19
2023-12-13T21:30:30.278Z,53.26
2023-12-13T21:32:57.773Z,53.16
2023-12-13T21:35:25.303Z,53.47
2023-12-13T21:37:52.582Z,53.06
2023-12-13T21:40:19.679Z,52.86
2023-12-13T21:42:47.173Z,53.13
2023-12-13T21:45:15.093Z,53.28
2023-12-13T21:47:42.603Z,53.75
2023-12-13T21:50:10.558Z,53.55
2023-12-13T21:52:39.221Z,53.88
2023-12-13T21:55:07.409Z,53.47
2023-12-13T21:57:35.037Z,53.96
2023-12-13T22:00:02.257Z,53.21
2023-12-13T22:02:29.659Z,53.66
2023-12-13T22:04:57.156Z,53.90
2023-12-13T22:07:24.751Z,53.84
2023-12-13T22:09:52.143Z,53.52
2023-12-13T22:12:19.876Z,53.79
2023-12-13T22:14:47.160Z,53.33
2023-12-13T22:17:20.270Z,53.58
2023-12-13T22:19:50.919Z,53.22
2023-12-13T22:22:20.892Z,53.76
2023-12-13T22:24:49.860Z,53.09
2023-12-13T22:27:18.167Z,53.49
2023-12-13T22:29:45.506Z,52.79
2023-12-13T22:32:12.898Z,53.14
2023-12-13T22:34:40.327Z,52.83
2023-12-13T22:37:07.655Z,52.83
2023-12-13T22:39:35.123Z,53.51
2023-12-13T22:42:05.144Z,53.50
2023-12-13T22:44:31.997Z,53.15
2023-12-13T22:46:58.746Z,53.24
2023-12-13T22:49:25.494Z,53.52
2023-12-13T22:52:18.914Z,53.22
2023-12-13T22:54:39.402Z,53.16
2023-12-13T22:57:06.109Z,53.32
2023-12-13T22:59:32.851Z,53.01
2023-12-13T23:02:01.484Z,53.68
2023-12-13T23:04:30.332Z,53.38
2023-12-13T23:06:57.247Z,53.43
2023-12-13T23:09:24.563Z,53.40
2023-12-13T23:11:51.709Z,52.87
2023-12-13T23:14:18.886Z,53.44
2023-12-13T23:16:45.716Z,53.53
2023-12-13T23:19:12.623Z,53.30
2023-12-13T23:21:39.422Z,53.31
2023-12-13T23:24:06.384Z,53.84
2023-12-13T23:26:33.344Z,53.10
2023-12-13T23:29:00.098Z,53.35
2023-12-13T23:31:33.411Z,53.30
2023-12-13T23:34:06.041Z,53.34
2023-12-13T23:36:34.781Z,53.66
2023-12-13T23:39:01.772Z,53.23
2023-12-13T23:41:28.804Z,52.93
2023-12-13T23:43:55.772Z,53.17
2023-12-13T23:46:22.572Z,53.62
2023-12-13T23:48:49.487Z,53.35
2023-12-13T23:51:16.543Z,53.24
2023-12-13T23:53:43.495Z,53.66
2023-12-13T23:56:24.146Z,53.31
2023-12-13T23:58:51.457Z,52.92
